Time;durP1;ratioP1;P1;durP2;ratioP2;P2;SDS_P1;SDS_P2;PMS_P1;PMS_P2;Temp;Humidity;BMP_temperature;BMP_pressure;BME280_temperature;BME280_humidity;BME280_pressure;Samples;Min_cycle;Max_cycle;Signal;HPM_P1;HPM_P2
2021/01/24 00:00:51;;;;;;;20.50;18.50;;;;;;;;;;5008981;28;20460;-71
2021/01/24 00:03:18;;;;;;;20.03;17.93;;;;;;;;;;4991970;28;20482;-71
2021/01/24 00:05:45;;;;;;;19.33;17.33;;;;;;;;;;4974971;28;20459;-72
2021/01/24 00:08:12;;;;;;;21.43;19.17;;;;;;;;;;4992124;28;20949;-71
2021/01/24 00:10:39;;;;;;;20.53;18.53;;;;;;;;;;4992675;28;20459;-71
2021/01/24 00:13:06;;;;;;;19.67;17.77;;;;;;;;;;4992996;28;20984;-71
2021/01/24 00:15:32;;;;;;;21.00;18.87;;;;;;;;;;4992949;28;21008;-71
2021/01/24 00:17:59;;;;;;;19.80;17.83;;;;;;;;;;4992091;28;20482;-71
2021/01/24 00:20:26;;;;;;;20.07;18.07;;;;;;;;;;4992364;28;20946;-68
2021/01/24 00:22:52;;;;;;;20.87;18.67;;;;;;;;;;4991874;28;20451;-71
2021/01/24 00:25:20;;;;;;;21.03;18.93;;;;;;;;;;4992291;28;20832;-71
2021/01/24 00:27:46;;;;;;;20.97;18.77;;;;;;;;;;4992323;28;20447;-70
2021/01/24 00:30:13;;;;;;;19.57;17.67;;;;;;;;;;4993701;28;20451;-71
2021/01/24 00:32:40;;;;;;;20.80;18.80;;;;;;;;;;4999047;28;20449;-71
2021/01/24 00:35:08;;;;;;;20.67;18.47;;;;;;;;;;5012748;28;20473;-71
2021/01/24 00:37:35;;;;;;;19.10;17.23;;;;;;;;;;5000415;28;20485;-70
2021/01/24 00:40:02;;;;;;;21.70;19.60;;;;;;;;;;4996017;28;20461;-71
2021/01/24 00:42:29;;;;;;;19.73;17.73;;;;;;;;;;4997037;28;20459;-71
2021/01/24 00:44:56;;;;;;;20.97;18.87;;;;;;;;;;4993484;28;20487;-71
2021/01/24 00:47:22;;;;;;;20.30;18.30;;;;;;;;;;4999374;28;20457;-69
2021/01/24 00:49:49;;;;;;;21.17;19.07;;;;;;;;;;4992006;28;20541;-70
2021/01/24 00:52:16;;;;;;;20.60;18.57;;;;;;;;;;4992014;28;20833;-70
2021/01/24 00:54:42;;;;;;;21.90;19.70;;;;;;;;;;4991816;28;20470;-69
2021/01/24 00:57:09;;;;;;;20.23;18.10;;;;;;;;;;4992053;28;20877;-70
2021/01/24 00:59:36;;;;;;;19.37;17.37;;;;;;;;;;4995171;28;20449;-70
2021/01/24 01:02:03;;;;;;;19.47;17.30;;;;;;;;;;5004650;28;20450;-70
2021/01/24 01:04:30;;;;;;;20.63;18.70;;;;;;;;;;4991581;28;20478;-70
2021/01/24 01:06:56;;;;;;;21.93;19.70;;;;;;;;;;4991799;28;20821;-70
2021/01/24 01:09:23;;;;;;;20.80;18.10;;;;;;;;;;4990957;28;20458;-70
2021/01/24 01:11:50;;;;;;;22.67;18.30;;;;;;;;;;4991587;28;20509;-70
2021/01/24 01:14:16;;;;;;;21.17;18.87;;;;;;;;;;4992229;28;20478;-70
2021/01/24 01:16:44;;;;;;;21.60;19.50;;;;;;;;;;4991777;28;20957;-70
2021/01/24 01:19:10;;;;;;;21.63;19.43;;;;;;;;;;4993607;28;20450;-70
2021/01/24 01:21:37;;;;;;;22.40;20.10;;;;;;;;;;4994867;28;20458;-70
2021/01/24 01:24:04;;;;;;;25.43;21.43;;;;;;;;;;4994907;28;20489;-69
2021/01/24 01:26:30;;;;;;;21.77;19.57;;;;;;;;;;4995778;28;20454;-70
2021/01/24 01:28:57;;;;;;;21.10;19.00;;;;;;;;;;4995001;28;20482;-70
2021/01/24 01:31:24;;;;;;;20.40;18.37;;;;;;;;;;4995269;28;20953;-70
2021/01/24 01:33:51;;;;;;;22.20;20.00;;;;;;;;;;4995426;28;20475;-70
2021/01/24 01:36:18;;;;;;;22.53;20.23;;;;;;;;;;5014800;28;20449;-70
2021/01/24 01:38:44;;;;;;;24.20;20.20;;;;;;;;;;5011134;28;20853;-70
2021/01/24 01:41:11;;;;;;;23.20;20.57;;;;;;;;;;4995305;28;20466;-70
2021/01/24 01:43:37;;;;;;;21.60;19.50;;;;;;;;;;4994242;28;20486;-70
2021/01/24 01:46:04;;;;;;;22.03;19.70;;;;;;;;;;4995145;28;20450;-70
2021/01/24 01:48:32;;;;;;;22.73;20.33;;;;;;;;;;4994632;28;20447;-70
2021/01/24 01:51:00;;;;;;;24.30;21.00;;;;;;;;;;4975151;28;20451;-70
2021/01/24 01:53:27;;;;;;;22.80;20.40;;;;;;;;;;4975714;28;20475;-70
2021/01/24 01:55:55;;;;;;;23.33;21.03;;;;;;;;;;4994161;28;20513;-69
2021/01/24 01:58:21;;;;;;;22.93;20.63;;;;;;;;;;4994202;28;20533;-69
2021/01/24 02:00:49;;;;;;;23.63;20.20;;;;;;;;;;4994423;28;20450;-69
2021/01/24 02:03:27;;;;;;;24.30;21.70;;;;;;;;;;4994478;28;20472;-70
2021/01/24 02:05:57;;;;;;;24.27;21.70;;;;;;;;;;4998559;28;20470;-72
2021/01/24 02:08:31;;;;;;;25.03;21.93;;;;;;;;;;4994142;28;20447;-72
2021/01/24 02:11:02;;;;;;;21.40;19.03;;;;;;;;;;4994757;28;20461;-72
2021/01/24 02:13:35;;;;;;;21.97;19.57;;;;;;;;;;4994320;28;20493;-72
2021/01/24 02:16:03;;;;;;;23.27;20.80;;;;;;;;;;4994472;28;20447;-72
2021/01/24 02:18:31;;;;;;;27.67;21.93;;;;;;;;;;4993813;28;20490;-72
2021/01/24 02:21:04;;;;;;;23.13;20.83;;;;;;;;;;4996187;28;20447;-72
2021/01/24 02:23:33;;;;;;;26.17;21.20;;;;;;;;;;5000262;28;20840;-72
2021/01/24 02:26:02;;;;;;;22.87;20.57;;;;;;;;;;4999583;28;20461;-71
2021/01/24 02:28:31;;;;;;;23.87;21.40;;;;;;;;;;4994492;28;20870;-70
2021/01/24 02:31:00;;;;;;;23.60;21.17;;;;;;;;;;4993577;28;20475;-71
2021/01/24 02:33:28;;;;;;;23.00;20.67;;;;;;;;;;4994347;28;20475;-71
2021/01/24 02:35:56;;;;;;;24.03;21.53;;;;;;;;;;4993910;28;20500;-71
2021/01/24 02:38:23;;;;;;;23.20;20.70;;;;;;;;;;4994174;28;21023;-71
2021/01/24 02:40:50;;;;;;;22.50;20.10;;;;;;;;;;4993600;28;20464;-72
2021/01/24 02:43:17;;;;;;;23.50;21.00;;;;;;;;;;4993913;28;20465;-72
2021/01/24 02:45:45;;;;;;;23.17;20.63;;;;;;;;;;4993753;28;20516;-71
2021/01/24 02:48:13;;;;;;;24.00;21.40;;;;;;;;;;4993670;28;20454;-72
2021/01/24 02:50:40;;;;;;;24.03;21.60;;;;;;;;;;4993716;28;20958;-71
2021/01/24 02:53:07;;;;;;;24.43;21.67;;;;;;;;;;4994059;28;20512;-71
2021/01/24 02:55:34;;;;;;;25.53;22.97;;;;;;;;;;4994466;28;20450;-70
2021/01/24 02:58:01;;;;;;;27.93;24.33;;;;;;;;;;4993216;28;20482;-71
2021/01/24 03:00:28;;;;;;;25.63;21.63;;;;;;;;;;4993476;28;21254;-71
2021/01/24 03:02:55;;;;;;;25.03;22.33;;;;;;;;;;4993638;28;20446;-71
2021/01/24 03:05:23;;;;;;;26.57;23.77;;;;;;;;;;4993172;28;20478;-69
2021/01/24 03:07:50;;;;;;;24.50;21.93;;;;;;;;;;4993355;28;20458;-71
2021/01/24 03:10:16;;;;;;;26.57;23.30;;;;;;;;;;4992577;28;20455;-71
2021/01/24 03:12:48;;;;;;;25.73;23.07;;;;;;;;;;4994563;28;20517;-71
2021/01/24 03:15:16;;;;;;;27.27;23.20;;;;;;;;;;4992835;28;20478;-71
2021/01/24 03:17:43;;;;;;;26.30;23.10;;;;;;;;;;4992914;28;20486;-70
2021/01/24 03:20:11;;;;;;;27.17;24.37;;;;;;;;;;4992502;28;20473;-71
2021/01/24 03:22:38;;;;;;;28.83;24.00;;;;;;;;;;4993037;28;20454;-70
2021/01/24 03:25:06;;;;;;;29.83;24.83;;;;;;;;;;4975244;28;20483;-71
2021/01/24 03:27:33;;;;;;;29.50;24.27;;;;;;;;;;4993360;28;20969;-71
2021/01/24 03:30:00;;;;;;;29.07;23.33;;;;;;;;;;4992544;28;20942;-71
2021/01/24 03:32:26;;;;;;;27.87;23.87;;;;;;;;;;4992988;28;20458;-72
2021/01/24 03:34:53;;;;;;;29.03;24.30;;;;;;;;;;4993282;28;20467;-72
2021/01/24 03:37:20;;;;;;;27.23;24.30;;;;;;;;;;5004506;28;20868;-72
2021/01/24 03:39:47;;;;;;;28.27;25.23;;;;;;;;;;5004507;28;20451;-72
2021/01/24 03:42:14;;;;;;;28.57;24.50;;;;;;;;;;4993125;28;20454;-72
2021/01/24 03:44:40;;;;;;;27.70;24.17;;;;;;;;;;4992177;28;20481;-71
2021/01/24 03:47:07;;;;;;;27.67;24.27;;;;;;;;;;4992830;28;20867;-71
2021/01/24 03:49:34;;;;;;;27.70;24.40;;;;;;;;;;4992151;28;20451;-71
2021/01/24 03:52:00;;;;;;;32.57;24.13;;;;;;;;;;4992792;28;20843;-71
2021/01/24 03:54:27;;;;;;;26.30;23.47;;;;;;;;;;4999625;28;20485;-71
2021/01/24 03:56:54;;;;;;;27.30;24.43;;;;;;;;;;4992727;28;20945;-71
2021/01/24 03:59:21;;;;;;;24.63;22.00;;;;;;;;;;4992079;28;20486;-72
2021/01/24 04:01:47;;;;;;;26.77;23.30;;;;;;;;;;4992640;28;20450;-71
2021/01/24 04:04:14;;;;;;;26.93;24.03;;;;;;;;;;4992490;28;20470;-72
2021/01/24 04:06:41;;;;;;;31.50;28.23;;;;;;;;;;4993909;28;20458;-72
2021/01/24 04:09:07;;;;;;;32.93;29.60;;;;;;;;;;4992424;28;20454;-72
2021/01/24 04:11:34;;;;;;;33.27;29.80;;;;;;;;;;4992293;28;20477;-71
2021/01/24 04:14:01;;;;;;;31.60;28.20;;;;;;;;;;4991963;28;20478;-71
2021/01/24 04:16:28;;;;;;;30.37;27.30;;;;;;;;;;4992551;28;20942;-71
2021/01/24 04:18:55;;;;;;;31.97;28.77;;;;;;;;;;4991411;28;20996;-71
2021/01/24 04:21:21;;;;;;;31.27;28.13;;;;;;;;;;4992437;28;20450;-72
2021/01/24 04:23:48;;;;;;;32.67;29.47;;;;;;;;;;4992000;28;20892;-70
2021/01/24 04:26:14;;;;;;;33.43;29.20;;;;;;;;;;4992536;28;20447;-71
2021/01/24 04:28:41;;;;;;;31.50;28.40;;;;;;;;;;4992030;28;20814;-71
2021/01/24 04:31:09;;;;;;;32.93;29.50;;;;;;;;;;4992194;28;20446;-71
2021/01/24 04:33:35;;;;;;;32.43;29.13;;;;;;;;;;4992201;28;20470;-71
2021/01/24 04:36:02;;;;;;;31.83;28.73;;;;;;;;;;4991949;28;21004;-72
2021/01/24 04:38:29;;;;;;;33.40;29.87;;;;;;;;;;4991595;28;21002;-71
2021/01/24 04:40:55;;;;;;;31.90;28.70;;;;;;;;;;4993008;28;20450;-71
2021/01/24 04:43:22;;;;;;;33.40;30.07;;;;;;;;;;4995747;28;20566;-71
2021/01/24 04:45:49;;;;;;;34.87;29.33;;;;;;;;;;4992267;28;20457;-71
2021/01/24 04:48:17;;;;;;;33.87;30.57;;;;;;;;;;4991871;28;20458;-71
2021/01/24 04:50:45;;;;;;;31.80;28.60;;;;;;;;;;4992027;28;20454;-71
2021/01/24 04:53:12;;;;;;;32.53;29.17;;;;;;;;;;4993914;28;20505;-71
2021/01/24 04:55:39;;;;;;;32.77;29.40;;;;;;;;;;4995886;28;20461;-69
2021/01/24 04:58:06;;;;;;;30.43;27.33;;;;;;;;;;4995221;28;20482;-71
2021/01/24 05:00:32;;;;;;;30.43;27.47;;;;;;;;;;4996645;28;20473;-71
2021/01/24 05:02:59;;;;;;;31.60;28.40;;;;;;;;;;4995419;28;20972;-70
2021/01/24 05:05:26;;;;;;;30.80;27.57;;;;;;;;;;4995766;28;20450;-72
2021/01/24 05:07:55;;;;;;;30.73;27.73;;;;;;;;;;4995178;28;20965;-70
2021/01/24 05:10:23;;;;;;;30.70;27.50;;;;;;;;;;4995605;28;20451;-71
2021/01/24 05:12:50;;;;;;;32.23;29.00;;;;;;;;;;4995479;28;20463;-71
2021/01/24 05:15:17;;;;;;;32.10;28.77;;;;;;;;;;4995675;28;20462;-71
2021/01/24 05:17:50;;;;;;;31.00;27.90;;;;;;;;;;4994917;28;20988;-71
2021/01/24 05:20:17;;;;;;;31.47;28.47;;;;;;;;;;4975880;28;20976;-69
2021/01/24 05:22:45;;;;;;;33.13;29.63;;;;;;;;;;4979127;28;20454;-71
2021/01/24 05:25:12;;;;;;;32.17;28.87;;;;;;;;;;4995207;28;20470;-71
2021/01/24 05:27:39;;;;;;;31.37;28.30;;;;;;;;;;4994372;28;20439;-71
2021/01/24 05:30:06;;;;;;;32.53;29.33;;;;;;;;;;4995395;28;20480;-70
2021/01/24 05:32:41;;;;;;;31.03;28.00;;;;;;;;;;4995726;28;20473;-71
2021/01/24 05:35:10;;;;;;;31.57;28.30;;;;;;;;;;4994801;28;20473;-71
2021/01/24 05:37:37;;;;;;;32.20;28.90;;;;;;;;;;4994133;28;20494;-70
2021/01/24 05:40:05;;;;;;;30.13;26.87;;;;;;;;;;4994437;28;20454;-71
2021/01/24 05:42:34;;;;;;;30.73;27.53;;;;;;;;;;4994121;28;20819;-71
2021/01/24 05:45:01;;;;;;;31.30;28.10;;;;;;;;;;5028602;23;20890;-65
2021/01/24 05:47:27;;;;;;;32.97;29.60;;;;;;;;;;4994535;28;20817;-66
2021/01/24 05:49:54;;;;;;;31.47;28.33;;;;;;;;;;4993726;28;20953;-66
2021/01/24 05:52:21;;;;;;;30.13;26.93;;;;;;;;;;4995318;28;20505;-66
2021/01/24 05:54:48;;;;;;;32.10;29.00;;;;;;;;;;4994133;28;20470;-65
2021/01/24 05:57:16;;;;;;;31.83;28.70;;;;;;;;;;4995048;28;20500;-66
2021/01/24 05:59:49;;;;;;;32.07;28.77;;;;;;;;;;4994338;28;20849;-66
2021/01/24 06:02:16;;;;;;;32.80;29.27;;;;;;;;;;4997546;28;20457;-66
2021/01/24 06:04:43;;;;;;;35.10;31.50;;;;;;;;;;4993911;28;20474;-66
2021/01/24 06:07:10;;;;;;;32.30;28.97;;;;;;;;;;4994372;28;20486;-65
2021/01/24 06:09:36;;;;;;;31.57;28.43;;;;;;;;;;4994772;28;20450;-66
2021/01/24 06:12:03;;;;;;;33.17;29.70;;;;;;;;;;4994551;28;20489;-67
2021/01/24 06:14:34;;;;;;;31.67;28.37;;;;;;;;;;4994609;28;20486;-66
2021/01/24 06:17:02;;;;;;;32.87;29.37;;;;;;;;;;4994007;28;20451;-67
2021/01/24 06:19:32;;;;;;;30.93;27.73;;;;;;;;;;4993450;28;20545;-67
2021/01/24 06:21:59;;;;;;;31.70;28.53;;;;;;;;;;4994229;28;20447;-66
2021/01/24 06:24:29;;;;;;;34.50;30.93;;;;;;;;;;4994387;28;20470;-67
2021/01/24 06:26:57;;;;;;;31.97;28.53;;;;;;;;;;4994382;28;20454;-67
2021/01/24 06:29:25;;;;;;;33.80;30.50;;;;;;;;;;4994206;28;20450;-67
2021/01/24 06:31:54;;;;;;;33.43;29.93;;;;;;;;;;4994126;28;20455;-68
2021/01/24 06:34:33;;;;;;;32.70;29.33;;;;;;;;;;4993958;28;20854;-66
2021/01/24 06:37:04;;;;;;;32.70;28.47;;;;;;;;;;4993204;28;21020;-67
2021/01/24 06:39:32;;;;;;;31.10;27.90;;;;;;;;;;4993707;28;20482;-66
2021/01/24 06:41:59;;;;;;;32.43;29.03;;;;;;;;;;4993490;28;20454;-66
2021/01/24 06:44:35;;;;;;;46.80;42.20;;;;;;;;;;4994968;28;20886;-67
2021/01/24 06:47:02;;;;;;;32.87;29.47;;;;;;;;;;4997710;28;20462;-66
2021/01/24 06:49:39;;;;;;;33.73;30.27;;;;;;;;;;4993627;28;20451;-67
2021/01/24 06:52:19;;;;;;;33.30;30.00;;;;;;;;;;4993669;28;20466;-67
2021/01/24 06:54:45;;;;;;;31.77;28.57;;;;;;;;;;4993922;28;20493;-67
2021/01/24 06:57:12;;;;;;;33.20;29.77;;;;;;;;;;4993332;28;20519;-67
2021/01/24 06:59:39;;;;;;;33.67;30.27;;;;;;;;;;4993837;28;20494;-66
2021/01/24 07:02:25;;;;;;;34.00;30.53;;;;;;;;;;4993233;28;20454;-66
2021/01/24 07:05:09;;;;;;;34.07;29.80;;;;;;;;;;4993487;28;20466;-65
2021/01/24 07:07:36;;;;;;;32.97;29.73;;;;;;;;;;4993053;28;20455;-66
2021/01/24 07:10:10;;;;;;;31.83;28.53;;;;;;;;;;4993031;28;21012;-66
2021/01/24 07:12:37;;;;;;;32.33;28.93;;;;;;;;;;4993169;28;20447;-66
2021/01/24 07:15:05;;;;;;;32.73;29.43;;;;;;;;;;4993708;28;20477;-66
2021/01/24 07:17:32;;;;;;;33.70;30.20;;;;;;;;;;4994289;28;20476;-66
2021/01/24 07:19:58;;;;;;;33.13;29.70;;;;;;;;;;5012491;28;20500;-66
2021/01/24 07:22:29;;;;;;;34.23;30.63;;;;;;;;;;4998716;28;20467;-66
2021/01/24 07:24:55;;;;;;;34.33;30.83;;;;;;;;;;4993127;28;20501;-66
2021/01/24 07:27:22;;;;;;;33.57;30.07;;;;;;;;;;5002063;28;21135;-66
2021/01/24 07:29:49;;;;;;;33.13;29.80;;;;;;;;;;5012530;28;20446;-67
2021/01/24 07:32:16;;;;;;;32.73;29.43;;;;;;;;;;4998383;28;20462;-66
2021/01/24 07:34:44;;;;;;;32.13;29.00;;;;;;;;;;4992953;28;21024;-66
2021/01/24 07:37:11;;;;;;;32.57;29.20;;;;;;;;;;4992805;28;20450;-67
2021/01/24 07:39:38;;;;;;;31.73;28.53;;;;;;;;;;4992744;28;20493;-69
2021/01/24 07:42:05;;;;;;;32.90;29.47;;;;;;;;;;4993292;28;20804;-67
2021/01/24 07:44:32;;;;;;;35.13;31.57;;;;;;;;;;4992125;28;20490;-65
2021/01/24 07:46:59;;;;;;;47.47;41.70;;;;;;;;;;4992714;28;20474;-66
2021/01/24 07:49:26;;;;;;;33.97;30.57;;;;;;;;;;4991925;28;20466;-66
2021/01/24 07:51:52;;;;;;;32.93;28.40;;;;;;;;;;4992772;28;20446;-65
2021/01/24 07:54:19;;;;;;;32.20;28.90;;;;;;;;;;4992334;28;20478;-65
2021/01/24 07:56:47;;;;;;;33.73;29.80;;;;;;;;;;4992798;28;20454;-65
2021/01/24 07:59:13;;;;;;;33.10;29.77;;;;;;;;;;4991763;28;20490;-65
2021/01/24 08:01:41;;;;;;;32.80;29.50;;;;;;;;;;4991745;28;20517;-65
2021/01/24 08:04:07;;;;;;;32.40;29.20;;;;;;;;;;4992066;28;20885;-65
2021/01/24 08:06:34;;;;;;;32.07;28.70;;;;;;;;;;4992770;28;20477;-65
2021/01/24 08:09:01;;;;;;;33.37;29.37;;;;;;;;;;4992470;28;20504;-66
2021/01/24 08:11:29;;;;;;;34.20;30.43;;;;;;;;;;4992468;28;20467;-66
2021/01/24 08:13:57;;;;;;;32.60;29.33;;;;;;;;;;4995342;28;20470;-67
2021/01/24 08:16:24;;;;;;;34.20;28.80;;;;;;;;;;4991769;28;20460;-66
2021/01/24 08:18:52;;;;;;;32.00;28.70;;;;;;;;;;4992473;28;20883;-66
2021/01/24 08:21:19;;;;;;;31.10;28.20;;;;;;;;;;4992391;28;20508;-66
2021/01/24 08:23:46;;;;;;;31.07;27.80;;;;;;;;;;4999715;28;20446;-66
2021/01/24 08:26:13;;;;;;;30.53;27.40;;;;;;;;;;4993087;28;20463;-66
2021/01/24 08:28:41;;;;;;;31.50;28.27;;;;;;;;;;4994406;28;20449;-66
2021/01/24 08:31:08;;;;;;;31.73;28.33;;;;;;;;;;4996143;28;20481;-65
2021/01/24 08:33:35;;;;;;;30.60;27.40;;;;;;;;;;4996577;28;20454;-65
2021/01/24 08:36:12;;;;;;;31.87;28.60;;;;;;;;;;4996480;28;20492;-66
2021/01/24 08:38:38;;;;;;;30.10;27.00;;;;;;;;;;4995892;28;20482;-65
2021/01/24 08:41:05;;;;;;;30.70;27.30;;;;;;;;;;4996508;28;20457;-65
2021/01/24 08:43:32;;;;;;;31.63;28.40;;;;;;;;;;4995508;28;20446;-66
2021/01/24 08:46:13;;;;;;;30.13;27.23;;;;;;;;;;4995975;28;20921;-65
2021/01/24 08:48:41;;;;;;;9.80;7.93;;;;;;;;;;4995299;28;20442;-70
2021/01/24 08:51:08;;;;;;;8.80;7.23;;;;;;;;;;4996054;28;20484;-67
2021/01/24 08:53:35;;;;;;;9.00;8.20;;;;;;;;;;4995546;28;20465;-67
2021/01/24 08:56:02;;;;;;;9.60;8.70;;;;;;;;;;4995941;28;20453;-68
2021/01/24 08:58:29;;;;;;;8.97;8.07;;;;;;;;;;4992067;28;20512;-68
2021/01/24 09:01:05;;;;;;;9.03;8.23;;;;;;;;;;4996799;28;20470;-68
2021/01/24 09:03:31;;;;;;;8.57;7.77;;;;;;;;;;5011693;28;20446;-68
2021/01/24 09:08:52;;;;;;;9.97;9.00;;;;;;;;;;5150949;27;20573;-67
2021/01/24 09:11:19;;;;;;;28.07;25.67;;;;;;;;;;5145004;27;20675;-67
2021/01/24 09:13:46;;;;;;;29.47;26.67;;;;;;;;;;5122827;27;20827;-68
2021/01/24 09:16:13;;;;;;;30.70;27.63;;;;;;;;;;5143975;27;20516;-65
2021/01/24 09:18:39;;;;;;;32.87;29.57;;;;;;;;;;5130271;27;20474;-65
2021/01/24 09:21:06;;;;;;;33.00;29.60;;;;;;;;;;5142594;27;20535;-63
2021/01/24 09:23:33;;;;;;;34.87;31.23;;;;;;;;;;5130172;27;20444;-66
2021/01/24 09:26:00;;;;;;;35.37;31.77;;;;;;;;;;5130332;27;20494;-66
2021/01/24 09:28:27;;;;;;;35.43;31.80;;;;;;;;;;5129911;27;20448;-66
2021/01/24 09:30:53;;;;;;;34.03;30.63;;;;;;;;;;5130997;27;20459;-69
2021/01/24 09:33:20;;;;;;;33.40;29.90;;;;;;;;;;5129866;27;20535;-67
2021/01/24 09:35:47;;;;;;;34.27;30.57;;;;;;;;;;5131845;27;20483;-65
2021/01/24 09:38:13;;;;;;;36.30;32.40;;;;;;;;;;5137397;27;20483;-67
2021/01/24 09:40:40;;;;;;;37.07;33.07;;;;;;;;;;5148941;27;20455;-66
2021/01/24 09:43:07;;;;;;;37.07;32.50;;;;;;;;;;5144614;27;20814;-67
2021/01/24 09:45:34;;;;;;;33.90;30.60;;;;;;;;;;5150364;27;20540;-63
2021/01/24 09:48:01;;;;;;;36.93;32.93;;;;;;;;;;5150405;27;20526;-64
2021/01/24 09:50:27;;;;;;;36.10;32.23;;;;;;;;;;5147111;27;21056;-64
2021/01/24 09:52:54;;;;;;;35.73;31.93;;;;;;;;;;5141386;27;20448;-66
2021/01/24 09:55:20;;;;;;;36.00;32.30;;;;;;;;;;5132961;27;20857;-66
2021/01/24 09:57:47;;;;;;;37.90;33.17;;;;;;;;;;5149897;27;20479;-66
2021/01/24 10:00:15;;;;;;;37.30;32.30;;;;;;;;;;5143787;27;20829;-66
2021/01/24 10:02:42;;;;;;;34.73;31.13;;;;;;;;;;5149866;27;20508;-66
2021/01/24 10:05:09;;;;;;;37.17;33.17;;;;;;;;;;5140101;27;20472;-66
2021/01/24 10:07:36;;;;;;;34.67;31.13;;;;;;;;;;5128941;27;20455;-66
2021/01/24 10:10:03;;;;;;;31.90;28.63;;;;;;;;;;5129020;27;20445;-66
2021/01/24 10:12:29;;;;;;;32.03;28.73;;;;;;;;;;5147761;27;20462;-67
2021/01/24 10:14:56;;;;;;;32.50;29.23;;;;;;;;;;5136506;27;20464;-66
2021/01/24 10:17:23;;;;;;;34.93;31.33;;;;;;;;;;5128769;27;20480;-67
2021/01/24 10:19:50;;;;;;;35.97;30.70;;;;;;;;;;5127997;27;20873;-67
2021/01/24 10:22:17;;;;;;;34.03;30.63;;;;;;;;;;5136402;27;20443;-66
2021/01/24 10:24:43;;;;;;;34.53;29.90;;;;;;;;;;5124590;27;21021;-66
2021/01/24 10:27:10;;;;;;;36.50;32.57;;;;;;;;;;5128787;27;20455;-66
2021/01/24 10:29:36;;;;;;;35.73;32.20;;;;;;;;;;5129011;27;20445;-69
2021/01/24 10:32:03;;;;;;;34.83;31.30;;;;;;;;;;5116316;28;20449;-69
2021/01/24 10:34:31;;;;;;;35.30;31.80;;;;;;;;;;5128794;27;20464;-69
2021/01/24 10:36:57;;;;;;;36.27;32.67;;;;;;;;;;5126326;27;20488;-69
2021/01/24 10:39:24;;;;;;;33.37;30.07;;;;;;;;;;5116183;28;20815;-69
2021/01/24 10:41:50;;;;;;;36.60;32.80;;;;;;;;;;5125193;27;20455;-68
2021/01/24 10:44:17;;;;;;;38.03;34.10;;;;;;;;;;5120541;27;20898;-66
2021/01/24 10:46:44;;;;;;;38.47;32.20;;;;;;;;;;5120288;27;20449;-66
2021/01/24 10:49:11;;;;;;;36.03;32.40;;;;;;;;;;5118797;28;20454;-66
2021/01/24 10:51:38;;;;;;;34.37;30.80;;;;;;;;;;5126519;27;20448;-65
2021/01/24 10:54:05;;;;;;;34.17;30.77;;;;;;;;;;5141588;27;20456;-68
2021/01/24 10:56:31;;;;;;;35.73;32.13;;;;;;;;;;5133490;27;20451;-68
2021/01/24 10:58:58;;;;;;;32.27;29.10;;;;;;;;;;5118988;28;20441;-65
2021/01/24 11:01:24;;;;;;;34.90;31.40;;;;;;;;;;5120594;27;20539;-65
2021/01/24 11:03:51;;;;;;;33.03;29.70;;;;;;;;;;5112912;27;20453;-65
2021/01/24 11:06:18;;;;;;;31.43;28.43;;;;;;;;;;5115153;27;20478;-67
2021/01/24 11:08:45;;;;;;;30.73;27.70;;;;;;;;;;5115382;28;20449;-65
2021/01/24 11:11:12;;;;;;;30.53;27.60;;;;;;;;;;5135196;27;20440;-67
2021/01/24 11:13:38;;;;;;;29.83;26.90;;;;;;;;;;5123847;27;20436;-64
2021/01/24 11:16:05;;;;;;;27.33;24.73;;;;;;;;;;5097883;28;20457;-63
2021/01/24 11:18:32;;;;;;;27.60;25.03;;;;;;;;;;5102784;28;20847;-64
2021/01/24 11:20:58;;;;;;;24.50;22.27;;;;;;;;;;5103791;27;20500;-63
2021/01/24 11:23:25;;;;;;;28.07;25.37;;;;;;;;;;5100113;27;20876;-64
2021/01/24 11:25:52;;;;;;;23.73;21.43;;;;;;;;;;5112970;27;20477;-65
2021/01/24 11:28:19;;;;;;;22.50;20.47;;;;;;;;;;5099797;28;20446;-64
2021/01/24 11:30:46;;;;;;;21.70;19.77;;;;;;;;;;5092862;27;20476;-64
2021/01/24 11:33:12;;;;;;;23.60;21.40;;;;;;;;;;5093554;27;20446;-64
2021/01/24 11:35:39;;;;;;;21.90;19.80;;;;;;;;;;5094220;27;21011;-64
2021/01/24 11:38:06;;;;;;;22.47;20.27;;;;;;;;;;5096995;28;20488;-63
2021/01/24 11:40:32;;;;;;;22.80;20.60;;;;;;;;;;5113476;28;20445;-64
2021/01/24 11:43:00;;;;;;;24.27;22.17;;;;;;;;;;5108513;28;20450;-64
2021/01/24 11:45:26;;;;;;;23.87;21.53;;;;;;;;;;5093789;28;20470;-64
2021/01/24 11:47:55;;;;;;;23.83;21.63;;;;;;;;;;5095465;27;20445;-64
2021/01/24 11:50:22;;;;;;;23.10;21.10;;;;;;;;;;5111537;28;20810;-66
2021/01/24 11:52:48;;;;;;;24.40;21.97;;;;;;;;;;5110479;28;20481;-66
2021/01/24 11:55:15;;;;;;;23.20;20.80;;;;;;;;;;5096330;27;20473;-64
2021/01/24 11:57:41;;;;;;;24.03;21.83;;;;;;;;;;5102732;28;20542;-64
2021/01/24 12:00:10;;;;;;;25.10;22.90;;;;;;;;;;5103910;28;20474;-64
2021/01/24 12:02:36;;;;;;;26.13;23.73;;;;;;;;;;5112754;28;20445;-63
2021/01/24 12:05:03;;;;;;;24.87;22.57;;;;;;;;;;5127571;27;20476;-63
2021/01/24 12:07:30;;;;;;;26.77;23.97;;;;;;;;;;5133567;27;20448;-64
2021/01/24 12:09:56;;;;;;;26.10;23.50;;;;;;;;;;5111035;27;20522;-63
2021/01/24 12:12:23;;;;;;;24.93;22.60;;;;;;;;;;5092830;28;20835;-64
2021/01/24 12:14:50;;;;;;;26.30;23.60;;;;;;;;;;5108428;27;20469;-66
2021/01/24 12:17:24;;;;;;;27.10;24.60;;;;;;;;;;5112725;28;21013;-64
2021/01/24 12:19:50;;;;;;;25.93;23.43;;;;;;;;;;5101443;28;20458;-67
2021/01/24 12:22:17;;;;;;;27.20;24.60;;;;;;;;;;5108516;28;20452;-67
2021/01/24 12:24:43;;;;;;;27.40;24.83;;;;;;;;;;5125937;27;20479;-64
2021/01/24 12:27:10;;;;;;;27.07;24.57;;;;;;;;;;5119523;27;20577;-68
2021/01/24 12:29:37;;;;;;;27.17;24.47;;;;;;;;;;5125657;27;20450;-66
2021/01/24 12:32:03;;;;;;;27.77;25.10;;;;;;;;;;5138758;27;20448;-67
2021/01/24 12:34:31;;;;;;;29.60;26.87;;;;;;;;;;5131424;27;20995;-65
2021/01/24 12:36:58;;;;;;;29.03;26.23;;;;;;;;;;5117027;28;20956;-63
2021/01/24 12:39:24;;;;;;;29.53;26.83;;;;;;;;;;5121903;27;20440;-65
2021/01/24 12:41:51;;;;;;;30.50;27.40;;;;;;;;;;5138278;27;20448;-66
2021/01/24 12:44:17;;;;;;;28.70;25.90;;;;;;;;;;5131555;27;20522;-65
2021/01/24 12:46:44;;;;;;;29.17;26.37;;;;;;;;;;5118143;28;20449;-63
2021/01/24 12:49:10;;;;;;;30.13;27.17;;;;;;;;;;5122776;27;20731;-65
2021/01/24 12:51:38;;;;;;;28.80;25.80;;;;;;;;;;5123949;27;20838;-65
2021/01/24 12:54:05;;;;;;;29.03;26.07;;;;;;;;;;5117958;28;20460;-65
2021/01/24 12:56:32;;;;;;;27.50;24.90;;;;;;;;;;5123368;27;20456;-66
2021/01/24 12:58:58;;;;;;;28.90;26.00;;;;;;;;;;5110372;28;20481;-65
2021/01/24 13:01:25;;;;;;;28.37;25.67;;;;;;;;;;5116457;28;20869;-66
2021/01/24 13:03:51;;;;;;;30.00;27.10;;;;;;;;;;5116229;28;20449;-67
2021/01/24 13:06:18;;;;;;;28.40;25.37;;;;;;;;;;5096629;28;20450;-66
2021/01/24 13:08:47;;;;;;;28.83;26.03;;;;;;;;;;5095771;28;20449;-65
2021/01/24 13:11:14;;;;;;;28.90;25.93;;;;;;;;;;5121565;28;20492;-65
2021/01/24 13:13:42;;;;;;;27.23;24.77;;;;;;;;;;5139181;27;20455;-66
2021/01/24 13:16:09;;;;;;;27.67;24.77;;;;;;;;;;5112625;27;20987;-65
2021/01/24 13:18:36;;;;;;;29.97;27.10;;;;;;;;;;5095507;28;21057;-66
2021/01/24 13:21:02;;;;;;;32.37;29.13;;;;;;;;;;5094869;28;20537;-65
2021/01/24 13:23:29;;;;;;;30.00;27.07;;;;;;;;;;5095445;28;20850;-65
2021/01/24 13:25:57;;;;;;;30.97;27.80;;;;;;;;;;5095164;28;20468;-67
2021/01/24 13:28:23;;;;;;;30.10;27.20;;;;;;;;;;5095088;28;20448;-64
2021/01/24 13:30:50;;;;;;;30.00;27.20;;;;;;;;;;5095405;28;20442;-66
2021/01/24 13:33:16;;;;;;;31.20;28.17;;;;;;;;;;5101446;28;20517;-65
2021/01/24 13:35:43;;;;;;;30.30;27.50;;;;;;;;;;5094499;28;20466;-66
2021/01/24 13:38:09;;;;;;;30.67;27.60;;;;;;;;;;5115972;28;20537;-65
2021/01/24 13:40:36;;;;;;;30.90;27.97;;;;;;;;;;5113446;28;20873;-66
2021/01/24 13:43:04;;;;;;;28.10;25.47;;;;;;;;;;5112563;28;20456;-66
2021/01/24 13:45:31;;;;;;;32.47;29.47;;;;;;;;;;5129490;28;20468;-67
2021/01/24 13:47:57;;;;;;;31.53;28.60;;;;;;;;;;5130359;27;20622;-66
2021/01/24 13:50:26;;;;;;;31.63;28.60;;;;;;;;;;5112650;28;20452;-66
2021/01/24 13:52:52;;;;;;;31.83;28.67;;;;;;;;;;5112492;28;20872;-66
2021/01/24 13:55:19;;;;;;;32.10;28.97;;;;;;;;;;5115309;28;20464;-67
2021/01/24 13:57:46;;;;;;;32.67;29.43;;;;;;;;;;5119484;27;20475;-64
2021/01/24 14:00:14;;;;;;;32.40;29.03;;;;;;;;;;5136192;27;20444;-66
2021/01/24 14:02:41;;;;;;;31.57;28.47;;;;;;;;;;5133978;27;20453;-66
2021/01/24 14:05:08;;;;;;;35.20;31.47;;;;;;;;;;5115924;28;20475;-66
2021/01/24 14:07:35;;;;;;;33.63;29.70;;;;;;;;;;5116446;27;20449;-66
2021/01/24 14:10:02;;;;;;;34.47;30.93;;;;;;;;;;5118938;27;20975;-66
2021/01/24 14:12:28;;;;;;;33.53;30.37;;;;;;;;;;5115964;28;20445;-66
2021/01/24 14:14:56;;;;;;;34.87;31.27;;;;;;;;;;5135545;27;20482;-66
2021/01/24 14:17:24;;;;;;;31.90;28.70;;;;;;;;;;5136553;27;20522;-66
2021/01/24 14:19:50;;;;;;;35.47;32.10;;;;;;;;;;5116866;27;20464;-66
2021/01/24 14:22:17;;;;;;;37.03;33.07;;;;;;;;;;5115939;27;20444;-66